sensor_id;sensor_type;location;lat;lon;timestamp;pressure;altitude;pressure_sealevel;temperature;humidity
73242;BME280;65659;49.234;-2.094;2023-03-11T00:00:46;99625.27;;;24.69;23.80
73242;BME280;65659;49.234;-2.094;2023-03-11T00:03:12;99630.53;;;24.77;23.74
73242;BME280;65659;49.234;-2.094;2023-03-11T00:05:38;99629.97;;;25.03;23.71
73242;BME280;65659;49.234;-2.094;2023-03-11T00:08:04;99627.08;;;24.87;23.65
73242;BME280;65659;49.234;-2.094;2023-03-11T00:10:30;99629.21;;;25.12;23.59
73242;BME280;65659;49.234;-2.094;2023-03-11T00:12:54;99632.51;;;25.08;23.63
73242;BME280;65659;49.234;-2.094;2023-03-11T00:15:19;99634.45;;;25.06;23.65
73242;BME280;65659;49.234;-2.094;2023-03-11T00:17:46;99649.88;;;25.03;23.69
73242;BME280;65659;49.234;-2.094;2023-03-11T00:20:17;99665.15;;;24.58;23.66
73242;BME280;65659;49.234;-2.094;2023-03-11T00:22:36;99690.46;;;25.09;23.65
73242;BME280;65659;49.234;-2.094;2023-03-11T00:25:02;99704.24;;;25.09;23.62
73242;BME280;65659;49.234;-2.094;2023-03-11T00:27:28;99703.74;;;25.08;23.62
73242;BME280;65659;49.234;-2.094;2023-03-11T00:29:53;99711.20;;;24.81;23.65
73242;BME280;65659;49.234;-2.094;2023-03-11T00:32:21;99709.31;;;24.79;23.65
73242;BME280;65659;49.234;-2.094;2023-03-11T00:34:46;99710.58;;;25.00;23.68
73242;BME280;65659;49.234;-2.094;2023-03-11T00:37:11;99699.56;;;24.98;23.69
73242;BME280;65659;49.234;-2.094;2023-03-11T00:39:36;99690.09;;;24.97;23.69
73242;BME280;65659;49.234;-2.094;2023-03-11T00:42:02;99699.35;;;24.55;23.62
73242;BME280;65659;49.234;-2.094;2023-03-11T00:44:28;99702.21;;;25.01;23.67
73242;BME280;65659;49.234;-2.094;2023-03-11T00:46:53;99697.38;;;24.79;23.64
73242;BME280;65659;49.234;-2.094;2023-03-11T00:49:19;99689.66;;;24.74;23.67
73242;BME280;65659;49.234;-2.094;2023-03-11T00:51:45;99682.48;;;24.96;23.66
73242;BME280;65659;49.234;-2.094;2023-03-11T00:54:11;99675.48;;;24.89;23.75
73242;BME280;65659;49.234;-2.094;2023-03-11T00:56:36;99690.93;;;24.96;23.68
73242;BME280;65659;49.234;-2.094;2023-03-11T00:59:02;99694.53;;;24.70;23.70
73242;BME280;65659;49.234;-2.094;2023-03-11T01:01:28;99694.81;;;24.91;23.73
73242;BME280;65659;49.234;-2.094;2023-03-11T01:03:53;99707.77;;;24.92;23.72
73242;BME280;65659;49.234;-2.094;2023-03-11T01:06:19;99697.13;;;24.68;23.70
73242;BME280;65659;49.234;-2.094;2023-03-11T01:08:45;99685.19;;;24.91;23.70
73242;BME280;65659;49.234;-2.094;2023-03-11T01:11:11;99656.64;;;24.71;23.66
73242;BME280;65659;49.234;-2.094;2023-03-11T01:13:38;99637.91;;;24.96;23.63
73242;BME280;65659;49.234;-2.094;2023-03-11T01:16:02;99624.67;;;24.74;23.61
73242;BME280;65659;49.234;-2.094;2023-03-11T01:18:28;99615.85;;;24.74;23.60
73242;BME280;65659;49.234;-2.094;2023-03-11T01:20:54;99588.91;;;25.04;23.53
73242;BME280;65659;49.234;-2.094;2023-03-11T01:23:20;99578.15;;;24.78;23.57
73242;BME280;65659;49.234;-2.094;2023-03-11T01:25:45;99591.58;;;25.02;23.57
73242;BME280;65659;49.234;-2.094;2023-03-11T01:28:11;99597.66;;;24.97;23.63
73242;BME280;65659;49.234;-2.094;2023-03-11T01:30:38;99593.03;;;24.97;23.64
73242;BME280;65659;49.234;-2.094;2023-03-11T01:33:02;99597.76;;;24.75;23.62
73242;BME280;65659;49.234;-2.094;2023-03-11T01:35:29;99601.23;;;24.95;23.65
73242;BME280;65659;49.234;-2.094;2023-03-11T01:37:53;99608.69;;;24.77;23.60
73242;BME280;65659;49.234;-2.094;2023-03-11T01:40:23;99623.57;;;25.04;23.57
73242;BME280;65659;49.234;-2.094;2023-03-11T01:42:45;99632.63;;;24.86;23.51
73242;BME280;65659;49.234;-2.094;2023-03-11T01:45:26;99648.73;;;25.10;23.48
73242;BME280;65659;49.234;-2.094;2023-03-11T01:47:38;99647.50;;;25.06;23.48
73242;BME280;65659;49.234;-2.094;2023-03-11T01:50:04;99654.40;;;25.03;23.51
73242;BME280;65659;49.234;-2.094;2023-03-11T01:52:28;99637.02;;;25.05;23.48
73242;BME280;65659;49.234;-2.094;2023-03-11T01:54:53;99607.95;;;24.79;23.53
73242;BME280;65659;49.234;-2.094;2023-03-11T01:57:20;99592.00;;;24.87;23.44
73242;BME280;65659;49.234;-2.094;2023-03-11T01:59:49;99609.27;;;24.91;23.39
73242;BME280;65659;49.234;-2.094;2023-03-11T02:02:15;99610.53;;;24.85;23.47
73242;BME280;65659;49.234;-2.094;2023-03-11T02:04:37;99607.31;;;24.80;23.49
73242;BME280;65659;49.234;-2.094;2023-03-11T02:07:03;99611.19;;;25.00;23.54
73242;BME280;65659;49.234;-2.094;2023-03-11T02:09:27;99613.34;;;24.96;23.56
73242;BME280;65659;49.234;-2.094;2023-03-11T02:11:53;99610.12;;;24.94;23.58
73242;BME280;65659;49.234;-2.094;2023-03-11T02:14:19;99607.03;;;24.91;23.58
73242;BME280;65659;49.234;-2.094;2023-03-11T02:16:45;99600.16;;;24.87;23.65
73242;BME280;65659;49.234;-2.094;2023-03-11T02:19:17;99600.50;;;24.92;23.55
73242;BME280;65659;49.234;-2.094;2023-03-11T02:21:36;99598.84;;;24.90;23.59
73242;BME280;65659;49.234;-2.094;2023-03-11T02:24:08;99600.33;;;24.92;23.56
73242;BME280;65659;49.234;-2.094;2023-03-11T02:26:36;99594.63;;;24.67;23.55
73242;BME280;65659;49.234;-2.094;2023-03-11T02:28:53;99589.09;;;24.93;23.55
73242;BME280;65659;49.234;-2.094;2023-03-11T02:31:19;99583.22;;;24.68;23.57
73242;BME280;65659;49.234;-2.094;2023-03-11T02:33:45;99571.46;;;24.97;23.51
73242;BME280;65659;49.234;-2.094;2023-03-11T02:38:36;99584.11;;;24.97;23.45
73242;BME280;65659;49.234;-2.094;2023-03-11T02:41:02;99566.32;;;24.70;23.51
73242;BME280;65659;49.234;-2.094;2023-03-11T02:43:32;99564.60;;;24.94;23.51
73242;BME280;65659;49.234;-2.094;2023-03-11T02:45:53;99564.27;;;24.97;23.46
73242;BME280;65659;49.234;-2.094;2023-03-11T02:48:19;99559.16;;;24.74;23.47
73242;BME280;65659;49.234;-2.094;2023-03-11T02:50:45;99563.44;;;25.01;23.41
73242;BME280;65659;49.234;-2.094;2023-03-11T02:53:10;99568.35;;;24.98;23.43
73242;BME280;65659;49.234;-2.094;2023-03-11T02:55:36;99565.98;;;25.01;23.39
73242;BME280;65659;49.234;-2.094;2023-03-11T02:58:01;99578.34;;;25.02;23.39
73242;BME280;65659;49.234;-2.094;2023-03-11T03:00:27;99587.92;;;24.79;23.38
73242;BME280;65659;49.234;-2.094;2023-03-11T03:02:53;99579.86;;;24.84;23.29
73242;BME280;65659;49.234;-2.094;2023-03-11T03:05:20;99575.86;;;25.08;23.26
73242;BME280;65659;49.234;-2.094;2023-03-11T03:07:44;99571.61;;;24.82;23.29
73242;BME280;65659;49.234;-2.094;2023-03-11T03:10:11;99570.15;;;24.88;23.20
73242;BME280;65659;49.234;-2.094;2023-03-11T03:12:35;99562.84;;;25.11;23.24
73242;BME280;65659;49.234;-2.094;2023-03-11T03:15:01;99559.35;;;24.84;23.24
73242;BME280;65659;49.234;-2.094;2023-03-11T03:17:27;99552.54;;;24.76;23.34
73242;BME280;65659;49.234;-2.094;2023-03-11T03:19:53;99559.67;;;24.98;23.33
73242;BME280;65659;49.234;-2.094;2023-03-11T03:22:18;99569.45;;;24.70;23.35
73242;BME280;65659;49.234;-2.094;2023-03-11T03:24:44;99559.64;;;24.95;23.36
73242;BME280;65659;49.234;-2.094;2023-03-11T03:27:10;99564.40;;;24.95;23.35
73242;BME280;65659;49.234;-2.094;2023-03-11T03:29:36;99565.14;;;24.92;23.37
73242;BME280;65659;49.234;-2.094;2023-03-11T03:32:01;99556.68;;;24.68;23.35
73242;BME280;65659;49.234;-2.094;2023-03-11T03:34:27;99538.31;;;24.92;23.37
73242;BME280;65659;49.234;-2.094;2023-03-11T03:36:52;99521.59;;;24.92;23.35
73242;BME280;65659;49.234;-2.094;2023-03-11T03:39:18;99489.73;;;24.65;23.36
73242;BME280;65659;49.234;-2.094;2023-03-11T03:41:44;99491.52;;;24.91;23.31
73242;BME280;65659;49.234;-2.094;2023-03-11T03:44:10;99485.80;;;24.91;23.31
73242;BME280;65659;49.234;-2.094;2023-03-11T03:46:35;99472.74;;;24.71;23.30
73242;BME280;65659;49.234;-2.094;2023-03-11T03:49:01;99487.11;;;24.99;23.23
73242;BME280;65659;49.234;-2.094;2023-03-11T03:51:27;99492.65;;;24.96;23.27
73242;BME280;65659;49.234;-2.094;2023-03-11T03:53:53;99498.09;;;24.93;23.30
73242;BME280;65659;49.234;-2.094;2023-03-11T03:56:19;99496.66;;;24.66;23.32
73242;BME280;65659;49.234;-2.094;2023-03-11T03:58:44;99503.78;;;24.88;23.31
73242;BME280;65659;49.234;-2.094;2023-03-11T04:01:11;99518.19;;;24.65;23.35
73242;BME280;65659;49.234;-2.094;2023-03-11T04:03:36;99536.49;;;24.66;23.35
73242;BME280;65659;49.234;-2.094;2023-03-11T04:06:06;99544.24;;;24.67;23.31
73242;BME280;65659;49.234;-2.094;2023-03-11T04:08:27;99554.38;;;24.45;23.31
73242;BME280;65659;49.234;-2.094;2023-03-11T04:10:56;99560.51;;;24.94;23.25
73242;BME280;65659;49.234;-2.094;2023-03-11T04:13:19;99551.49;;;24.72;23.21
73242;BME280;65659;49.234;-2.094;2023-03-11T04:15:44;99547.94;;;24.97;23.23
73242;BME280;65659;49.234;-2.094;2023-03-11T04:18:10;99552.09;;;24.74;23.22
73242;BME280;65659;49.234;-2.094;2023-03-11T04:20:37;99554.33;;;24.81;23.16
73242;BME280;65659;49.234;-2.094;2023-03-11T04:23:01;99562.16;;;25.12;23.06
73242;BME280;65659;49.234;-2.094;2023-03-11T04:25:27;99572.43;;;25.14;23.04
73242;BME280;65659;49.234;-2.094;2023-03-11T04:27:53;99573.91;;;25.14;23.03
73242;BME280;65659;49.234;-2.094;2023-03-11T04:30:18;99574.59;;;25.07;23.08
73242;BME280;65659;49.234;-2.094;2023-03-11T04:32:44;99577.82;;;25.01;23.15
73242;BME280;65659;49.234;-2.094;2023-03-11T04:35:10;99584.76;;;25.01;23.15
73242;BME280;65659;49.234;-2.094;2023-03-11T04:37:35;99579.76;;;24.98;23.19
73242;BME280;65659;49.234;-2.094;2023-03-11T04:40:01;99575.92;;;24.72;23.21
73242;BME280;65659;49.234;-2.094;2023-03-11T04:42:27;99568.89;;;24.95;23.22
73242;BME280;65659;49.234;-2.094;2023-03-11T04:44:52;99566.31;;;24.72;23.18
73242;BME280;65659;49.234;-2.094;2023-03-11T04:47:18;99561.51;;;24.96;23.17
73242;BME280;65659;49.234;-2.094;2023-03-11T04:49:44;99561.10;;;24.72;23.21
73242;BME280;65659;49.234;-2.094;2023-03-11T04:52:09;99552.87;;;24.68;23.25
73242;BME280;65659;49.234;-2.094;2023-03-11T04:54:35;99550.89;;;24.93;23.21
73242;BME280;65659;49.234;-2.094;2023-03-11T04:57:01;99553.84;;;24.91;23.22
73242;BME280;65659;49.234;-2.094;2023-03-11T04:59:26;99565.33;;;24.68;23.22
73242;BME280;65659;49.234;-2.094;2023-03-11T05:01:52;99565.79;;;24.71;23.18
73242;BME280;65659;49.234;-2.094;2023-03-11T05:04:18;99558.86;;;24.93;23.20
73242;BME280;65659;49.234;-2.094;2023-03-11T05:06:44;99559.36;;;24.67;23.21
73242;BME280;65659;49.234;-2.094;2023-03-11T05:09:10;99555.73;;;24.92;23.22
73242;BME280;65659;49.234;-2.094;2023-03-11T05:11:35;99548.11;;;24.67;23.21
73242;BME280;65659;49.234;-2.094;2023-03-11T05:14:01;99550.44;;;24.67;23.21
73242;BME280;65659;49.234;-2.094;2023-03-11T05:16:27;99562.99;;;24.92;23.19
73242;BME280;65659;49.234;-2.094;2023-03-11T05:18:52;99562.39;;;24.69;23.19
73242;BME280;65659;49.234;-2.094;2023-03-11T05:21:18;99567.75;;;24.93;23.19
73242;BME280;65659;49.234;-2.094;2023-03-11T05:23:44;99565.11;;;24.68;23.20
73242;BME280;65659;49.234;-2.094;2023-03-11T05:26:09;99559.35;;;24.92;23.20
73242;BME280;65659;49.234;-2.094;2023-03-11T05:28:35;99563.67;;;24.70;23.17
73242;BME280;65659;49.234;-2.094;2023-03-11T05:31:01;99559.36;;;24.70;23.19
73242;BME280;65659;49.234;-2.094;2023-03-11T05:33:26;99556.28;;;24.94;23.15
73242;BME280;65659;49.234;-2.094;2023-03-11T05:35:52;99555.43;;;24.76;23.11
73242;BME280;65659;49.234;-2.094;2023-03-11T05:38:18;99557.52;;;25.01;23.07
73242;BME280;65659;49.234;-2.094;2023-03-11T05:40:44;99561.68;;;25.05;23.05
73242;BME280;65659;49.234;-2.094;2023-03-11T05:43:09;99566.06;;;24.81;23.07
73242;BME280;65659;49.234;-2.094;2023-03-11T05:45:35;99568.33;;;24.84;22.99
73242;BME280;65659;49.234;-2.094;2023-03-11T05:48:01;99562.80;;;25.06;23.01
73242;BME280;65659;49.234;-2.094;2023-03-11T05:50:26;99561.79;;;25.04;23.01
73242;BME280;65659;49.234;-2.094;2023-03-11T05:52:52;99562.89;;;24.76;23.09
73242;BME280;65659;49.234;-2.094;2023-03-11T05:55:18;99554.63;;;24.73;23.08
73242;BME280;65659;49.234;-2.094;2023-03-11T05:57:43;99555.80;;;24.98;23.06
73242;BME280;65659;49.234;-2.094;2023-03-11T06:00:10;99553.24;;;24.94;23.11
73242;BME280;65659;49.234;-2.094;2023-03-11T06:02:35;99549.00;;;24.96;23.09
73242;BME280;65659;49.234;-2.094;2023-03-11T06:05:00;99550.17;;;24.73;23.10
73242;BME280;65659;49.234;-2.094;2023-03-11T06:07:26;99544.61;;;24.94;23.14
73242;BME280;65659;49.234;-2.094;2023-03-11T06:09:52;99536.86;;;24.93;23.13
73242;BME280;65659;49.234;-2.094;2023-03-11T06:12:18;99534.43;;;24.93;23.10
73242;BME280;65659;49.234;-2.094;2023-03-11T06:14:43;99537.19;;;24.73;23.11
73242;BME280;65659;49.234;-2.094;2023-03-11T06:17:09;99527.48;;;24.94;23.12
73242;BME280;65659;49.234;-2.094;2023-03-11T06:19:35;99528.12;;;24.69;23.10
73242;BME280;65659;49.234;-2.094;2023-03-11T06:22:01;99538.39;;;24.91;23.14
73242;BME280;65659;49.234;-2.094;2023-03-11T06:24:26;99542.76;;;24.67;23.11
73242;BME280;65659;49.234;-2.094;2023-03-11T06:26:53;99546.81;;;24.94;23.08
73242;BME280;65659;49.234;-2.094;2023-03-11T06:29:18;99552.03;;;24.70;23.11
73242;BME280;65659;49.234;-2.094;2023-03-11T06:31:43;99553.38;;;24.67;23.14
73242;BME280;65659;49.234;-2.094;2023-03-11T06:34:09;99557.05;;;24.43;23.14
73242;BME280;65659;49.234;-2.094;2023-03-11T06:36:35;99559.01;;;24.89;23.12
73242;BME280;65659;49.234;-2.094;2023-03-11T06:39:00;99563.45;;;24.87;23.16
73242;BME280;65659;49.234;-2.094;2023-03-11T06:41:26;99572.29;;;24.88;23.15
73242;BME280;65659;49.234;-2.094;2023-03-11T06:43:52;99579.24;;;24.88;23.12
73242;BME280;65659;49.234;-2.094;2023-03-11T06:46:20;99576.92;;;24.66;23.10
73242;BME280;65659;49.234;-2.094;2023-03-11T06:48:44;99573.01;;;24.72;23.04
73242;BME280;65659;49.234;-2.094;2023-03-11T06:51:09;99575.77;;;24.75;23.01
73242;BME280;65659;49.234;-2.094;2023-03-11T06:53:35;99578.84;;;24.79;22.98
73242;BME280;65659;49.234;-2.094;2023-03-11T06:56:03;99578.93;;;25.01;23.01
73242;BME280;65659;49.234;-2.094;2023-03-11T06:58:26;99577.86;;;24.99;23.02
73242;BME280;65659;49.234;-2.094;2023-03-11T07:00:52;99571.74;;;24.98;23.01
73242;BME280;65659;49.234;-2.094;2023-03-11T07:03:18;99570.75;;;24.99;23.00
73242;BME280;65659;49.234;-2.094;2023-03-11T07:05:43;99571.42;;;25.02;22.99
73242;BME280;65659;49.234;-2.094;2023-03-11T07:08:10;99573.38;;;25.12;22.87
73242;BME280;65659;49.234;-2.094;2023-03-11T07:10:35;99578.18;;;25.09;22.88
73242;BME280;65659;49.234;-2.094;2023-03-11T07:13:00;99582.04;;;25.06;22.92
73242;BME280;65659;49.234;-2.094;2023-03-11T07:15:26;99580.67;;;25.04;22.92
73242;BME280;65659;49.234;-2.094;2023-03-11T07:17:52;99576.24;;;25.01;22.97
73242;BME280;65659;49.234;-2.094;2023-03-11T07:20:18;99574.08;;;24.97;23.01
73242;BME280;65659;49.234;-2.094;2023-03-11T07:22:43;99571.61;;;24.99;22.97
73242;BME280;65659;49.234;-2.094;2023-03-11T07:25:09;99571.83;;;24.96;23.00
73242;BME280;65659;49.234;-2.094;2023-03-11T07:27:35;99574.57;;;24.98;22.99
73242;BME280;65659;49.234;-2.094;2023-03-11T07:30:00;99578.92;;;24.74;23.00
73242;BME280;65659;49.234;-2.094;2023-03-11T07:32:26;99579.25;;;24.95;23.04
73242;BME280;65659;49.234;-2.094;2023-03-11T07:34:52;99583.62;;;24.70;23.03
73242;BME280;65659;49.234;-2.094;2023-03-11T07:37:17;99588.29;;;24.94;23.01
73242;BME280;65659;49.234;-2.094;2023-03-11T07:39:43;99581.49;;;24.92;23.01
73242;BME280;65659;49.234;-2.094;2023-03-11T07:42:09;99574.25;;;24.68;23.01
73242;BME280;65659;49.234;-2.094;2023-03-11T07:44:35;99572.88;;;24.66;23.06
73242;BME280;65659;49.234;-2.094;2023-03-11T07:47:01;99571.05;;;24.93;23.01
73242;BME280;65659;49.234;-2.094;2023-03-11T07:49:26;99572.43;;;24.93;23.02
73242;BME280;65659;49.234;-2.094;2023-03-11T07:51:52;99570.85;;;24.93;23.01
73242;BME280;65659;49.234;-2.094;2023-03-11T07:54:17;99566.41;;;24.92;23.03
73242;BME280;65659;49.234;-2.094;2023-03-11T07:56:43;99565.20;;;24.90;23.06
73242;BME280;65659;49.234;-2.094;2023-03-11T07:59:09;99566.23;;;24.68;23.04
73242;BME280;65659;49.234;-2.094;2023-03-11T08:01:35;99571.53;;;24.88;23.08
73242;BME280;65659;49.234;-2.094;2023-03-11T08:04:01;99571.34;;;24.70;23.02
73242;BME280;65659;49.234;-2.094;2023-03-11T08:06:28;99577.76;;;24.98;22.99
73242;BME280;65659;49.234;-2.094;2023-03-11T08:08:52;99584.51;;;24.73;23.01
73242;BME280;65659;49.234;-2.094;2023-03-11T08:11:19;99582.58;;;24.96;23.02
73242;BME280;65659;49.234;-2.094;2023-03-11T08:13:44;99584.60;;;25.00;22.96
73242;BME280;65659;49.234;-2.094;2023-03-11T08:16:12;99585.76;;;25.02;22.92
73242;BME280;65659;49.234;-2.094;2023-03-11T08:18:34;99588.39;;;25.05;22.90
73242;BME280;65659;49.234;-2.094;2023-03-11T08:21:03;99584.62;;;25.03;22.91
73242;BME280;65659;49.234;-2.094;2023-03-11T08:23:26;99589.20;;;24.82;22.90
73242;BME280;65659;49.234;-2.094;2023-03-11T08:25:51;99595.11;;;24.89;22.83
73242;BME280;65659;49.234;-2.094;2023-03-11T08:28:17;99599.10;;;25.14;22.82
73242;BME280;65659;49.234;-2.094;2023-03-11T08:30:43;99604.29;;;24.87;22.85
73242;BME280;65659;49.234;-2.094;2023-03-11T08:33:09;99606.17;;;24.88;22.84
73242;BME280;65659;49.234;-2.094;2023-03-11T08:35:34;99603.66;;;25.11;22.86
73242;BME280;65659;49.234;-2.094;2023-03-11T08:38:00;99600.10;;;24.60;22.87
73242;BME280;65659;49.234;-2.094;2023-03-11T08:40:26;99592.90;;;25.07;22.89
73242;BME280;65659;49.234;-2.094;2023-03-11T08:42:52;99594.94;;;24.92;22.81
73242;BME280;65659;49.234;-2.094;2023-03-11T08:45:17;99598.06;;;24.88;22.85
73242;BME280;65659;49.234;-2.094;2023-03-11T08:47:43;99609.71;;;25.07;22.89
73242;BME280;65659;49.234;-2.094;2023-03-11T08:50:12;99609.82;;;24.80;22.94
73242;BME280;65659;49.234;-2.094;2023-03-11T08:52:34;99613.01;;;25.03;22.94
73242;BME280;65659;49.234;-2.094;2023-03-11T08:55:00;99621.44;;;24.75;22.99
73242;BME280;65659;49.234;-2.094;2023-03-11T08:57:26;99625.81;;;24.75;22.97
73242;BME280;65659;49.234;-2.094;2023-03-11T08:59:51;99629.11;;;24.77;22.96
73242;BME280;65659;49.234;-2.094;2023-03-11T09:02:17;99631.68;;;24.72;23.04
73242;BME280;65659;49.234;-2.094;2023-03-11T09:04:43;99632.16;;;25.02;22.97
73242;BME280;65659;49.234;-2.094;2023-03-11T09:07:16;99631.64;;;24.83;22.92
73242;BME280;65659;49.234;-2.094;2023-03-11T09:09:34;99629.90;;;24.81;22.93
73242;BME280;65659;49.234;-2.094;2023-03-11T09:12:00;99625.12;;;24.79;22.96
73242;BME280;65659;49.234;-2.094;2023-03-11T09:14:26;99629.60;;;25.08;22.88
73242;BME280;65659;49.234;-2.094;2023-03-11T09:16:51;99631.61;;;25.05;22.92
73242;BME280;65659;49.234;-2.094;2023-03-11T09:19:18;99631.92;;;25.09;22.89
73242;BME280;65659;49.234;-2.094;2023-03-11T09:21:43;99631.51;;;25.07;22.92
73242;BME280;65659;49.234;-2.094;2023-03-11T09:24:09;99635.02;;;24.78;22.96
73242;BME280;65659;49.234;-2.094;2023-03-11T09:26:34;99640.75;;;24.79;22.94
73242;BME280;65659;49.234;-2.094;2023-03-11T09:29:00;99643.79;;;25.04;22.94
73242;BME280;65659;49.234;-2.094;2023-03-11T09:31:26;99633.31;;;24.57;22.94
73242;BME280;65659;49.234;-2.094;2023-03-11T09:33:51;99638.49;;;24.80;22.94
73242;BME280;65659;49.234;-2.094;2023-03-11T09:36:18;99635.75;;;24.80;22.95
73242;BME280;65659;49.234;-2.094;2023-03-11T09:38:43;99634.38;;;25.07;22.93
73242;BME280;65659;49.234;-2.094;2023-03-11T09:41:18;99629.40;;;25.07;22.94
73242;BME280;65659;49.234;-2.094;2023-03-11T09:43:44;99622.68;;;24.79;22.99
73242;BME280;65659;49.234;-2.094;2023-03-11T09:46:05;99618.79;;;24.85;22.94
73242;BME280;65659;49.234;-2.094;2023-03-11T09:48:31;99615.30;;;24.91;22.87
73242;BME280;65659;49.234;-2.094;2023-03-11T09:50:54;99614.05;;;24.93;22.86
73242;BME280;65659;49.234;-2.094;2023-03-11T09:53:23;99624.96;;;24.93;22.85
73242;BME280;65659;49.234;-2.094;2023-03-11T09:55:45;99632.03;;;25.00;22.79
73242;BME280;65659;49.234;-2.094;2023-03-11T09:58:12;99637.41;;;24.80;22.79
73242;BME280;65659;49.234;-2.094;2023-03-11T10:00:35;99636.39;;;24.98;22.83
73242;BME280;65659;49.234;-2.094;2023-03-11T10:03:01;99634.16;;;24.76;22.80
73242;BME280;65659;49.234;-2.094;2023-03-11T10:05:27;99627.87;;;25.00;22.80
73242;BME280;65659;49.234;-2.094;2023-03-11T10:07:56;99626.48;;;24.77;22.79
73242;BME280;65659;49.234;-2.094;2023-03-11T10:10:17;99625.05;;;24.79;22.76
73242;BME280;65659;49.234;-2.094;2023-03-11T10:12:48;99622.51;;;25.22;22.83
73242;BME280;65659;49.234;-2.094;2023-03-11T10:15:18;99626.59;;;24.96;22.86
73242;BME280;65659;49.234;-2.094;2023-03-11T10:17:45;99628.71;;;24.96;22.84
73242;BME280;65659;49.234;-2.094;2023-03-11T10:20:03;99640.10;;;24.69;22.86
73242;BME280;65659;49.234;-2.094;2023-03-11T10:22:29;99637.75;;;25.13;22.90
73242;BME280;65659;49.234;-2.094;2023-03-11T10:25:00;99640.05;;;24.90;22.91
73242;BME280;65659;49.234;-2.094;2023-03-11T10:27:21;99634.65;;;24.65;22.91
73242;BME280;65659;49.234;-2.094;2023-03-11T10:29:50;99629.66;;;24.89;22.90
73242;BME280;65659;49.234;-2.094;2023-03-11T10:32:14;99636.86;;;24.92;22.89
73242;BME280;65659;49.234;-2.094;2023-03-11T10:34:38;99639.54;;;25.17;22.88
73242;BME280;65659;49.234;-2.094;2023-03-11T10:37:04;99643.08;;;25.12;22.93
73242;BME280;65659;49.234;-2.094;2023-03-11T10:39:26;99650.27;;;24.86;22.95
73242;BME280;65659;49.234;-2.094;2023-03-11T10:41:54;99654.62;;;25.06;22.99
73242;BME280;65659;49.234;-2.094;2023-03-11T10:44:21;99654.44;;;25.04;23.01
73242;BME280;65659;49.234;-2.094;2023-03-11T10:46:43;99655.78;;;24.80;23.03
73242;BME280;65659;49.234;-2.094;2023-03-11T10:49:13;99658.38;;;25.05;23.03
73242;BME280;65659;49.234;-2.094;2023-03-11T10:51:35;99656.46;;;24.80;23.06
73242;BME280;65659;49.234;-2.094;2023-03-11T10:54:01;99656.20;;;24.81;23.06
73242;BME280;65659;49.234;-2.094;2023-03-11T10:56:28;99659.70;;;25.04;23.07
73242;BME280;65659;49.234;-2.094;2023-03-11T10:58:52;99665.86;;;24.84;23.04
73242;BME280;65659;49.234;-2.094;2023-03-11T11:01:18;99667.28;;;24.61;23.04
73242;BME280;65659;49.234;-2.094;2023-03-11T11:03:45;99662.63;;;25.06;23.08
73242;BME280;65659;49.234;-2.094;2023-03-11T11:06:18;99657.69;;;25.04;23.11
73242;BME280;65659;49.234;-2.094;2023-03-11T11:08:34;99659.23;;;24.68;23.00
73242;BME280;65659;49.234;-2.094;2023-03-11T11:11:02;99656.55;;;25.00;22.94
73242;BME280;65659;49.234;-2.094;2023-03-11T11:13:27;99659.58;;;24.74;22.97
73242;BME280;65659;49.234;-2.094;2023-03-11T11:15:55;99658.87;;;24.99;22.96
73242;BME280;65659;49.234;-2.094;2023-03-11T11:18:20;99660.06;;;24.98;22.99
73242;BME280;65659;49.234;-2.094;2023-03-11T11:20:54;99660.74;;;24.97;23.02
73242;BME280;65659;49.234;-2.094;2023-03-11T11:25:37;99663.62;;;25.24;23.00
73242;BME280;65659;49.234;-2.094;2023-03-11T11:28:03;99664.67;;;25.25;22.98
73242;BME280;65659;49.234;-2.094;2023-03-11T11:30:31;99663.79;;;25.23;23.01
73242;BME280;65659;49.234;-2.094;2023-03-11T11:32:51;99661.00;;;24.97;23.02
73242;BME280;65659;49.234;-2.094;2023-03-11T11:35:18;99663.41;;;24.95;23.07
73242;BME280;65659;49.234;-2.094;2023-03-11T11:37:52;99664.96;;;25.14;23.10
73242;BME280;65659;49.234;-2.094;2023-03-11T11:40:23;99665.25;;;24.88;23.15
73242;BME280;65659;49.234;-2.094;2023-03-11T11:42:34;99661.68;;;24.92;23.11
73242;BME280;65659;49.234;-2.094;2023-03-11T11:45:08;99659.90;;;24.94;23.10
73242;BME280;65659;49.234;-2.094;2023-03-11T11:47:32;99657.92;;;24.73;23.07
73242;BME280;65659;49.234;-2.094;2023-03-11T11:49:54;99660.84;;;24.96;23.09
73242;BME280;65659;49.234;-2.094;2023-03-11T11:52:19;99660.90;;;24.92;23.13
73242;BME280;65659;49.234;-2.094;2023-03-11T11:54:46;99663.90;;;24.84;23.22
73242;BME280;65659;49.234;-2.094;2023-03-11T11:57:11;99660.92;;;24.83;23.23
73242;BME280;65659;49.234;-2.094;2023-03-11T11:59:34;99662.22;;;25.05;23.26
73242;BME280;65659;49.234;-2.094;2023-03-11T12:02:11;99662.09;;;25.07;23.26
73242;BME280;65659;49.234;-2.094;2023-03-11T12:04:35;99661.26;;;24.55;23.30
73242;BME280;65659;49.234;-2.094;2023-03-11T12:07:02;99662.10;;;25.07;23.29
73242;BME280;65659;49.234;-2.094;2023-03-11T12:09:23;99659.05;;;25.05;23.32
73242;BME280;65659;49.234;-2.094;2023-03-11T12:11:48;99661.16;;;25.08;23.29
73242;BME280;65659;49.234;-2.094;2023-03-11T12:14:13;99658.72;;;25.08;23.31
73242;BME280;65659;49.234;-2.094;2023-03-11T12:16:41;99658.95;;;25.04;23.37
73242;BME280;65659;49.234;-2.094;2023-03-11T12:19:13;99660.71;;;25.08;23.35
73242;BME280;65659;49.234;-2.094;2023-03-11T12:21:42;99661.91;;;24.65;23.31
73242;BME280;65659;49.234;-2.094;2023-03-11T12:24:02;99661.35;;;24.76;23.22
73242;BME280;65659;49.234;-2.094;2023-03-11T12:26:20;99661.24;;;25.24;23.24
73242;BME280;65659;49.234;-2.094;2023-03-11T12:28:47;99662.09;;;24.92;23.35
73242;BME280;65659;49.234;-2.094;2023-03-11T12:31:10;99665.20;;;25.19;23.35
73242;BME280;65659;49.234;-2.094;2023-03-11T12:33:36;99667.56;;;24.97;23.33
73242;BME280;65659;49.234;-2.094;2023-03-11T12:36:01;99673.06;;;24.95;23.36
73242;BME280;65659;49.234;-2.094;2023-03-11T12:38:30;99675.77;;;25.01;23.29
73242;BME280;65659;49.234;-2.094;2023-03-11T12:41:04;99673.67;;;25.04;23.27
73242;BME280;65659;49.234;-2.094;2023-03-11T12:43:25;99668.87;;;25.07;23.23
73242;BME280;65659;49.234;-2.094;2023-03-11T12:45:49;99663.33;;;25.09;23.22